OTHH Airport Information

Runway Information
Airport Frequencies
Airport Navaids
Airport Weather Information & NOTAM
ADDS - METARS form results

(1706 UTC 19 August 2019)
Data provider http://aviationweather.gov/metar/data/
 
Forecast for: OTHH (DOHA HAMAD INTL , QA)
Text: TAF OTHH 191108Z 1912/2018 06009KT CAVOK
Forecast period: 1200 UTC 19 August 2019 to 0300 UTC 20 August 2019
Forecast type: FROM: standard forecast or significant change
Winds: from the ENE (60 degrees) at 10 MPH (9 knots; 4.6 m/s)
Visibility: 6 or more miles 10+ km)
Ceiling: unknown
Clouds: missing
Weather: NSW  (no significant weather)
Text: BECMG 2003/2005 36005KT 8000 NSC
Forecast period: 0300 to 1800 UTC 20 August 2019
Forecast type: BECOMING: Conditions expected to become as follows by 0500 UTC 20 August 2019
Winds: from the N (360 degrees) at 6 MPH (5 knots; 2.6 m/s)
Visibility: 5 miles (8 km)
Ceiling: unknown
Clouds: missing
Weather: NSW  (no significant weather)